createdAt,value
2019-02-25T00:00:49.306Z,1032.57
2019-02-25T00:01:49.312Z,1032.44
2019-02-25T00:02:49.276Z,1032.50
2019-02-25T00:03:49.280Z,1032.37
2019-02-25T00:04:49.257Z,1032.51
2019-02-25T00:05:49.239Z,1032.51
2019-02-25T00:06:49.256Z,1032.56
2019-02-25T00:07:49.232Z,1032.50
2019-02-25T00:08:49.225Z,1032.42
2019-02-25T00:09:49.211Z,1032.51
2019-02-25T00:10:49.215Z,1032.41
2019-02-25T00:11:49.200Z,1032.53
2019-02-25T00:12:49.168Z,1032.44
2019-02-25T00:13:49.162Z,1032.45
2019-02-25T00:14:49.146Z,1032.44
2019-02-25T00:15:49.155Z,1032.39
2019-02-25T00:16:49.150Z,1032.41
2019-02-25T00:17:49.119Z,1032.36
2019-02-25T00:18:49.112Z,1032.52
2019-02-25T00:19:49.082Z,1032.43
2019-02-25T00:20:49.082Z,1032.30
2019-02-25T00:21:49.086Z,1032.29
2019-02-25T00:22:49.061Z,1032.24
2019-02-25T00:23:49.042Z,1032.19
2019-02-25T00:24:49.043Z,1032.21
2019-02-25T00:25:49.027Z,1032.17
2019-02-25T00:26:49.034Z,1032.13
2019-02-25T00:27:49.009Z,1032.17
2019-02-25T00:28:49.010Z,1032.30
2019-02-25T00:29:48.986Z,1032.32
2019-02-25T00:30:48.971Z,1032.40
2019-02-25T00:31:48.978Z,1032.35
2019-02-25T00:32:48.941Z,1032.42
2019-02-25T00:33:48.935Z,1032.37
2019-02-25T00:34:48.923Z,1032.22
2019-02-25T00:35:48.926Z,1032.29
2019-02-25T00:36:48.928Z,1032.23
2019-02-25T00:37:48.894Z,1032.25
2019-02-25T00:38:48.888Z,1032.29
2019-02-25T00:39:48.882Z,1032.24
2019-02-25T00:40:48.853Z,1032.39
2019-02-25T00:41:48.865Z,1032.19
2019-02-25T00:42:48.839Z,1032.17
2019-02-25T00:43:48.819Z,1032.23
2019-02-25T00:44:48.812Z,1032.23
2019-02-25T00:45:48.801Z,1032.26
2019-02-25T00:46:48.804Z,1032.42
2019-02-25T00:47:48.790Z,1032.36
2019-02-25T00:48:48.781Z,1032.31
2019-02-25T00:49:48.758Z,1032.46
2019-02-25T00:50:48.743Z,1032.33
2019-02-25T00:51:48.764Z,1032.35
2019-02-25T00:52:48.740Z,1032.33
2019-02-25T00:53:48.725Z,1032.36
2019-02-25T00:54:48.694Z,1032.34
2019-02-25T00:55:48.688Z,1032.30
2019-02-25T00:56:48.703Z,1032.46
2019-02-25T00:57:48.680Z,1032.39
2019-02-25T00:58:48.662Z,1032.35
2019-02-25T00:59:48.661Z,1032.24
2019-02-25T01:00:48.625Z,1032.25
2019-02-25T01:01:48.646Z,1032.34
2019-02-25T01:02:48.609Z,1032.35
2019-02-25T01:03:48.605Z,1032.23
2019-02-25T01:04:48.600Z,1032.20
2019-02-25T01:05:48.585Z,1032.22
2019-02-25T01:06:48.588Z,1032.20
2019-02-25T01:07:48.551Z,1032.29
2019-02-25T01:08:48.555Z,1032.29
2019-02-25T01:09:48.541Z,1032.16
2019-02-25T01:10:48.535Z,1032.25
2019-02-25T01:11:48.538Z,1032.41
2019-02-25T01:12:48.511Z,1032.30
2019-02-25T01:13:48.498Z,1032.32
2019-02-25T01:14:48.480Z,1032.32
2019-02-25T01:15:48.467Z,1032.46
2019-02-25T01:16:48.476Z,1032.47
2019-02-25T01:17:48.451Z,1032.45
2019-02-25T01:18:48.434Z,1032.33
2019-02-25T01:19:48.436Z,1032.24
2019-02-25T01:20:48.419Z,1032.23
2019-02-25T01:21:48.433Z,1032.25
2019-02-25T01:22:48.424Z,1032.24
2019-02-25T01:23:49.040Z,1032.32
2019-02-25T01:24:48.372Z,1032.27
2019-02-25T01:25:48.390Z,1032.39
2019-02-25T01:26:48.387Z,1032.29
2019-02-25T01:27:48.354Z,1032.20
2019-02-25T01:28:48.360Z,1032.25
2019-02-25T01:29:48.364Z,1032.24
2019-02-25T01:30:48.434Z,1032.24
2019-02-25T01:31:48.381Z,1032.23
2019-02-25T01:32:48.431Z,1032.39
2019-02-25T01:33:48.340Z,1032.33
2019-02-25T01:34:48.312Z,1032.30
2019-02-25T01:35:48.303Z,1032.26
2019-02-25T01:36:48.316Z,1032.37
2019-02-25T01:37:48.237Z,1032.18
2019-02-25T01:38:48.211Z,1032.17
2019-02-25T01:39:48.214Z,1032.16
2019-02-25T01:40:48.192Z,1032.19
2019-02-25T01:41:48.194Z,1032.18
2019-02-25T01:42:48.174Z,1032.18
2019-02-25T01:43:48.171Z,1032.27
2019-02-25T01:44:48.154Z,1032.29
2019-02-25T01:45:48.153Z,1032.18
2019-02-25T01:46:48.160Z,1032.08
2019-02-25T01:47:48.115Z,1032.12
2019-02-25T01:48:48.106Z,1032.00
2019-02-25T01:49:48.101Z,1032.04
2019-02-25T01:50:48.084Z,1032.02
2019-02-25T01:51:48.072Z,1032.00
2019-02-25T01:52:48.088Z,1032.04
2019-02-25T01:53:48.053Z,1031.97
2019-02-25T01:54:48.042Z,1031.97
2019-02-25T01:55:48.027Z,1031.92
2019-02-25T01:56:48.014Z,1031.92
2019-02-25T01:57:48.025Z,1031.87
2019-02-25T01:58:48.023Z,1031.91
2019-02-25T01:59:47.989Z,1031.88
2019-02-25T02:00:47.979Z,1032.04
2019-02-25T02:01:47.969Z,1031.99
2019-02-25T02:02:47.955Z,1031.99
2019-02-25T02:03:47.964Z,1031.97
2019-02-25T02:04:47.927Z,1031.99
2019-02-25T02:05:47.925Z,1031.93
2019-02-25T02:06:47.903Z,1031.93
2019-02-25T02:07:47.905Z,1031.90
2019-02-25T02:08:47.895Z,1031.93
2019-02-25T02:09:47.895Z,1031.94
2019-02-25T02:10:47.863Z,1031.96
2019-02-25T02:11:47.862Z,1031.84
2019-02-25T02:12:47.845Z,1032.00
2019-02-25T02:13:47.869Z,1031.85
2019-02-25T02:14:47.821Z,1031.87
2019-02-25T02:15:47.804Z,1031.89
2019-02-25T02:16:47.806Z,1031.85
2019-02-25T02:17:47.787Z,1031.98
2019-02-25T02:18:47.809Z,1032.00
2019-02-25T02:19:47.757Z,1031.91
2019-02-25T02:20:47.749Z,1031.95
2019-02-25T02:21:47.735Z,1031.95
2019-02-25T02:22:47.733Z,1031.90
2019-02-25T02:23:47.753Z,1031.80
2019-02-25T02:24:47.701Z,1031.86
2019-02-25T02:25:47.696Z,1031.83
2019-02-25T02:26:47.683Z,1031.82
2019-02-25T02:27:47.681Z,1031.96
2019-02-25T02:28:47.668Z,1031.85
2019-02-25T02:29:47.668Z,1031.84
2019-02-25T02:30:47.634Z,1031.88
2019-02-25T02:31:47.637Z,1031.83
2019-02-25T02:32:47.632Z,1031.85
2019-02-25T02:33:47.608Z,1031.99
2019-02-25T02:34:47.625Z,1031.76
2019-02-25T02:35:47.594Z,1031.88
2019-02-25T02:36:47.572Z,1031.79
2019-02-25T02:37:47.580Z,1031.75
2019-02-25T02:38:47.560Z,1031.75
2019-02-25T02:39:47.568Z,1031.83
2019-02-25T02:40:47.532Z,1031.83
2019-02-25T02:41:47.530Z,1031.78
2019-02-25T02:42:47.512Z,1031.68
2019-02-25T02:43:47.504Z,1031.67
2019-02-25T02:44:47.521Z,1031.66
2019-02-25T02:45:47.472Z,1031.66
2019-02-25T02:46:47.458Z,1031.65
2019-02-25T02:47:47.460Z,1031.64
2019-02-25T02:48:47.458Z,1031.58
2019-02-25T02:49:47.437Z,1031.73
2019-02-25T02:50:47.449Z,1031.72
2019-02-25T02:51:47.412Z,1031.76
2019-02-25T02:52:47.397Z,1031.74
2019-02-25T02:53:47.387Z,1031.66
2019-02-25T02:54:47.371Z,1031.56
2019-02-25T02:55:47.380Z,1031.61
2019-02-25T02:56:47.356Z,1031.51
2019-02-25T02:57:47.337Z,1031.57
2019-02-25T02:58:47.334Z,1031.58
2019-02-25T02:59:47.315Z,1031.71
2019-02-25T03:00:47.347Z,1031.71
2019-02-25T03:01:47.297Z,1031.65
2019-02-25T03:02:47.286Z,1031.66
2019-02-25T03:03:47.285Z,1031.66
2019-02-25T03:04:47.262Z,1031.54
2019-02-25T03:05:47.241Z,1031.70
2019-02-25T03:06:47.252Z,1031.78
2019-02-25T03:07:47.216Z,1031.64
2019-02-25T03:08:47.219Z,1031.63
2019-02-25T03:09:47.198Z,1031.67
2019-02-25T03:10:47.194Z,1031.68
2019-02-25T03:11:47.199Z,1031.73
2019-02-25T03:12:47.169Z,1031.66
2019-02-25T03:13:47.189Z,1031.74
2019-02-25T03:14:47.152Z,1031.85
2019-02-25T03:15:47.159Z,1031.92
2019-02-25T03:16:47.147Z,1031.89
2019-02-25T03:17:47.128Z,1031.91
2019-02-25T03:18:47.106Z,1031.79
2019-02-25T03:19:47.099Z,1031.81
2019-02-25T03:20:47.083Z,1031.83
2019-02-25T03:21:47.082Z,1031.85
2019-02-25T03:22:47.059Z,1031.82
2019-02-25T03:23:47.052Z,1031.81
2019-02-25T03:24:47.035Z,1031.84
2019-02-25T03:25:47.029Z,1031.87
2019-02-25T03:26:47.021Z,1031.86
2019-02-25T03:27:47.014Z,1031.86
2019-02-25T03:28:46.991Z,1031.85
2019-02-25T03:29:46.982Z,1031.81
2019-02-25T03:30:46.977Z,1032.02
2019-02-25T03:31:47.007Z,1032.01
2019-02-25T03:32:46.956Z,1031.85
2019-02-25T03:33:46.943Z,1031.88
2019-02-25T03:34:46.930Z,1031.91
2019-02-25T03:35:46.917Z,1031.85
2019-02-25T03:36:46.912Z,1031.90
2019-02-25T03:37:46.904Z,1031.93
2019-02-25T03:38:46.879Z,1032.07
2019-02-25T03:39:46.862Z,1031.88
2019-02-25T03:40:46.900Z,1031.89
2019-02-25T03:41:46.845Z,1031.88
2019-02-25T03:42:46.850Z,1031.93
2019-02-25T03:43:46.824Z,1032.00
2019-02-25T03:44:46.823Z,1031.90
2019-02-25T03:45:46.815Z,1031.88
2019-02-25T03:46:46.799Z,1032.00
2019-02-25T03:47:46.799Z,1031.96
2019-02-25T03:48:46.790Z,1031.89
2019-02-25T03:49:46.758Z,1031.81
2019-02-25T03:50:46.749Z,1031.92
2019-02-25T03:51:46.745Z,1031.89
2019-02-25T03:52:46.758Z,1031.78
2019-02-25T03:53:46.730Z,1031.73
2019-02-25T03:54:46.695Z,1031.84
2019-02-25T03:55:46.688Z,1031.71
2019-02-25T03:56:46.687Z,1031.80
2019-02-25T03:57:46.717Z,1031.82
2019-02-25T03:58:46.650Z,1031.85
2019-02-25T03:59:46.644Z,1031.81
2019-02-25T04:00:46.642Z,1031.73
2019-02-25T04:01:46.620Z,1031.70
2019-02-25T04:02:46.644Z,1031.76
2019-02-25T04:03:46.610Z,1031.70
2019-02-25T04:04:46.600Z,1031.71
2019-02-25T04:05:46.572Z,1031.68
2019-02-25T04:06:46.564Z,1031.74
2019-02-25T04:07:46.582Z,1031.72
2019-02-25T04:08:46.554Z,1031.74
2019-02-25T04:09:46.542Z,1031.67
2019-02-25T04:10:46.550Z,1031.67
2019-02-25T04:11:46.522Z,1031.67
2019-02-25T04:12:46.532Z,1031.62
2019-02-25T04:13:46.495Z,1031.62
2019-02-25T04:14:46.482Z,1031.68
2019-02-25T04:15:46.480Z,1031.59
2019-02-25T04:16:46.455Z,1031.57
2019-02-25T04:17:46.468Z,1031.50
2019-02-25T04:18:46.478Z,1031.49
2019-02-25T04:19:46.464Z,1031.50
2019-02-25T04:20:46.420Z,1031.49
2019-02-25T04:21:46.425Z,1031.41
2019-02-25T04:22:46.392Z,1031.49
2019-02-25T04:23:46.377Z,1031.45
2019-02-25T04:24:46.371Z,1031.48
2019-02-25T04:25:46.347Z,1031.52
2019-02-25T04:26:46.350Z,1031.44
2019-02-25T04:27:46.360Z,1031.47
2019-02-25T04:28:46.317Z,1031.48
2019-02-25T04:29:46.308Z,1031.46
2019-02-25T04:30:46.304Z,1031.42
2019-02-25T04:31:46.288Z,1031.47
2019-02-25T04:32:46.298Z,1031.51
2019-02-25T04:33:46.262Z,1031.51
2019-02-25T04:34:46.258Z,1031.48
2019-02-25T04:35:46.248Z,1031.56
2019-02-25T04:36:46.224Z,1031.66
2019-02-25T04:37:46.247Z,1031.63
2019-02-25T04:38:46.207Z,1031.71
2019-02-25T04:39:46.206Z,1031.62
2019-02-25T04:40:46.204Z,1031.67
2019-02-25T04:41:46.185Z,1031.66
2019-02-25T04:42:46.185Z,1031.65
2019-02-25T04:43:46.167Z,1031.74
2019-02-25T04:44:46.153Z,1031.68
2019-02-25T04:45:46.131Z,1031.75
2019-02-25T04:46:46.132Z,1031.74
2019-02-25T04:47:46.144Z,1031.75
2019-02-25T04:48:46.118Z,1031.78
2019-02-25T04:49:46.089Z,1031.73
2019-02-25T04:50:46.073Z,1031.79
2019-02-25T04:51:46.133Z,1031.85
2019-02-25T04:52:46.075Z,1031.83
2019-02-25T04:53:46.050Z,1031.91
2019-02-25T04:54:46.048Z,1031.90
2019-02-25T04:55:46.029Z,1031.90
2019-02-25T04:56:46.011Z,1031.88
2019-02-25T04:57:46.019Z,1031.77
2019-02-25T04:58:45.994Z,1031.74
2019-02-25T04:59:45.989Z,1031.77
2019-02-25T05:00:45.970Z,1031.74
2019-02-25T05:01:45.968Z,1031.73
2019-02-25T05:02:45.972Z,1031.86
2019-02-25T05:03:45.950Z,1031.70
2019-02-25T05:04:45.925Z,1031.74
2019-02-25T05:05:45.931Z,1031.86
2019-02-25T05:06:45.904Z,1031.83
2019-02-25T05:07:45.915Z,1031.76
2019-02-25T05:08:45.881Z,1031.83
2019-02-25T05:09:45.879Z,1031.86
2019-02-25T05:10:45.864Z,1031.90
2019-02-25T05:11:45.861Z,1031.92
2019-02-25T05:12:45.857Z,1031.95
2019-02-25T05:13:45.858Z,1031.95
2019-02-25T05:14:45.817Z,1032.09
2019-02-25T05:15:45.818Z,1032.07
2019-02-25T05:16:45.801Z,1031.95
2019-02-25T05:17:45.814Z,1031.90
2019-02-25T05:18:45.784Z,1031.91
2019-02-25T05:19:45.764Z,1031.90
2019-02-25T05:20:45.757Z,1031.94
2019-02-25T05:21:45.743Z,1031.93
2019-02-25T05:22:45.747Z,1031.92
2019-02-25T05:23:45.722Z,1031.86
2019-02-25T05:24:45.717Z,1031.84
2019-02-25T05:25:45.698Z,1031.86
2019-02-25T05:26:45.695Z,1031.85
2019-02-25T05:27:45.702Z,1031.92
2019-02-25T05:28:45.660Z,1031.92
2019-02-25T05:29:45.683Z,1031.93
2019-02-25T05:30:45.647Z,1031.94
2019-02-25T05:31:45.630Z,1031.94
2019-02-25T05:32:45.660Z,1031.94
2019-02-25T05:33:45.616Z,1031.89
2019-02-25T05:34:45.597Z,1031.96
2019-02-25T05:35:45.586Z,1031.92
2019-02-25T05:36:45.580Z,1031.99
2019-02-25T05:37:45.583Z,1031.97
2019-02-25T05:38:45.554Z,1031.96
2019-02-25T05:39:45.553Z,1031.94
2019-02-25T05:40:45.536Z,1031.99
2019-02-25T05:41:45.559Z,1032.01
2019-02-25T05:42:45.551Z,1031.97
2019-02-25T05:43:45.524Z,1031.96
2019-02-25T05:44:45.487Z,1031.91
2019-02-25T05:45:45.486Z,1031.97
2019-02-25T05:46:45.485Z,1031.92
2019-02-25T05:47:45.490Z,1032.02
2019-02-25T05:48:45.447Z,1031.97
2019-02-25T05:49:45.428Z,1032.04
2019-02-25T05:50:45.439Z,1032.01
2019-02-25T05:51:45.410Z,1032.02
2019-02-25T05:52:45.417Z,1032.04
2019-02-25T05:53:45.386Z,1032.05
2019-02-25T05:54:45.428Z,1031.99
2019-02-25T05:55:45.377Z,1032.20
2019-02-25T05:56:45.359Z,1032.05
2019-02-25T05:57:45.414Z,1032.20
2019-02-25T05:58:45.390Z,1032.12
2019-02-25T05:59:45.328Z,1032.09
2019-02-25T06:00:45.323Z,1032.23
2019-02-25T06:01:45.315Z,1032.23
2019-02-25T06:02:45.310Z,1032.10
2019-02-25T06:03:45.285Z,1032.10
2019-02-25T06:04:45.287Z,1032.14
2019-02-25T06:05:45.262Z,1032.12
2019-02-25T06:06:45.266Z,1032.15
2019-02-25T06:07:45.276Z,1032.09
2019-02-25T06:08:45.244Z,1032.07
2019-02-25T06:09:45.213Z,1032.00
2019-02-25T06:10:45.213Z,1032.00
2019-02-25T06:11:45.195Z,1032.15
2019-02-25T06:12:45.227Z,1032.18
2019-02-25T06:13:45.177Z,1032.11
2019-02-25T06:14:45.180Z,1032.17
2019-02-25T06:15:45.159Z,1032.18
2019-02-25T06:16:45.139Z,1032.22
2019-02-25T06:17:45.145Z,1032.16
2019-02-25T06:18:45.126Z,1032.18
2019-02-25T06:19:45.115Z,1032.20
2019-02-25T06:20:45.111Z,1032.25
2019-02-25T06:21:45.085Z,1032.24
2019-02-25T06:22:45.144Z,1032.23
2019-02-25T06:23:45.071Z,1032.25
2019-02-25T06:24:45.056Z,1032.09
2019-02-25T06:25:45.037Z,1032.13
2019-02-25T06:26:45.038Z,1032.13
2019-02-25T06:27:45.042Z,1032.19
2019-02-25T06:28:45.032Z,1032.24
2019-02-25T06:29:45.001Z,1032.08
2019-02-25T06:30:45.005Z,1032.24
2019-02-25T06:31:45.003Z,1032.21
2019-02-25T06:32:44.986Z,1032.18
2019-02-25T06:33:44.967Z,1032.25
2019-02-25T06:34:44.946Z,1032.24
2019-02-25T06:35:44.937Z,1032.18
2019-02-25T06:36:44.913Z,1032.24
2019-02-25T06:37:44.983Z,1032.19
2019-02-25T06:38:44.903Z,1032.22
2019-02-25T06:39:44.904Z,1032.24
2019-02-25T06:40:44.885Z,1032.26
2019-02-25T06:41:44.888Z,1032.31
2019-02-25T06:42:44.865Z,1032.34
2019-02-25T06:43:44.862Z,1032.35
2019-02-25T06:44:44.842Z,1032.33
2019-02-25T06:45:44.829Z,1032.33
2019-02-25T06:46:44.825Z,1032.45
2019-02-25T06:47:44.818Z,1032.51
2019-02-25T06:48:44.909Z,1032.38
2019-02-25T06:49:44.777Z,1032.45
2019-02-25T06:50:44.784Z,1032.43
2019-02-25T06:51:44.760Z,1032.40
2019-02-25T06:52:44.760Z,1032.41
2019-02-25T06:53:44.760Z,1032.38
2019-02-25T06:54:44.720Z,1032.34
2019-02-25T06:55:44.713Z,1032.35
2019-02-25T06:56:44.748Z,1032.45
2019-02-25T06:57:44.707Z,1032.37
2019-02-25T06:58:44.708Z,1032.44
2019-02-25T06:59:44.675Z,1032.48
2019-02-25T07:00:44.653Z,1032.46
2019-02-25T07:01:44.648Z,1032.49
2019-02-25T07:02:44.641Z,1032.47
2019-02-25T07:03:44.647Z,1032.62
2019-02-25T07:04:44.608Z,1032.50
2019-02-25T07:05:44.594Z,1032.50
2019-02-25T07:06:44.592Z,1032.52
2019-02-25T07:07:44.612Z,1032.54
2019-02-25T07:08:44.615Z,1032.55
2019-02-25T07:09:44.577Z,1032.53
2019-02-25T07:10:44.545Z,1032.54
2019-02-25T07:11:44.568Z,1032.64
2019-02-25T07:12:44.522Z,1032.58
2019-02-25T07:13:44.536Z,1032.47
2019-02-25T07:14:44.511Z,1032.56
2019-02-25T07:15:44.498Z,1032.66
2019-02-25T07:16:44.485Z,1032.65
2019-02-25T07:17:44.475Z,1032.59
2019-02-25T07:18:44.474Z,1032.69
2019-02-25T07:19:44.463Z,1032.58
2019-02-25T07:20:44.451Z,1032.62
2019-02-25T07:21:44.446Z,1032.67
2019-02-25T07:22:44.411Z,1032.58
2019-02-25T07:23:44.425Z,1032.61
2019-02-25T07:24:52.658Z,1032.56
2019-02-25T07:25:45.387Z,1032.67
2019-02-25T07:26:44.368Z,1032.65
2019-02-25T07:27:44.365Z,1032.66
2019-02-25T07:28:44.420Z,1032.62
2019-02-25T07:29:44.333Z,1032.62
2019-02-25T07:30:44.330Z,1032.58
2019-02-25T07:31:44.322Z,1032.67
2019-02-25T07:32:44.323Z,1032.75
2019-02-25T07:33:44.340Z,1032.65
2019-02-25T07:34:44.279Z,1032.68
2019-02-25T07:35:44.281Z,1032.68
2019-02-25T07:36:44.270Z,1032.64
2019-02-25T07:37:44.258Z,1032.63
2019-02-25T07:38:44.287Z,1032.66
2019-02-25T07:39:44.241Z,1032.80
2019-02-25T07:40:44.213Z,1032.75
2019-02-25T07:41:44.203Z,1032.77
2019-02-25T07:42:44.193Z,1032.68
2019-02-25T07:43:44.197Z,1032.80
2019-02-25T07:44:44.197Z,1032.72
2019-02-25T07:45:44.160Z,1032.70
2019-02-25T07:46:44.154Z,1032.73
2019-02-25T07:47:44.147Z,1032.69
2019-02-25T07:48:44.135Z,1032.69
2019-02-25T07:49:44.147Z,1032.69
2019-02-25T07:50:47.089Z,1032.76
2019-02-25T07:51:44.094Z,1032.73
2019-02-25T07:52:44.082Z,1032.68
2019-02-25T07:53:44.087Z,1032.69
2019-02-25T07:54:44.108Z,1032.77
2019-02-25T07:55:44.053Z,1032.67
2019-02-25T07:56:44.051Z,1032.63
2019-02-25T07:57:44.034Z,1032.64
2019-02-25T07:58:44.027Z,1032.69
2019-02-25T07:59:44.049Z,1032.63
2019-02-25T08:00:43.996Z,1032.64
2019-02-25T08:01:43.995Z,1032.62
2019-02-25T08:02:43.982Z,1032.63
2019-02-25T08:03:43.961Z,1032.59
2019-02-25T08:04:43.971Z,1032.69
2019-02-25T08:05:43.947Z,1032.66
2019-02-25T08:06:43.924Z,1032.67
2019-02-25T08:07:43.922Z,1032.71
2019-02-25T08:08:43.907Z,1032.73
2019-02-25T08:09:43.914Z,1032.64
2019-02-25T08:10:43.889Z,1032.65
2019-02-25T08:11:43.881Z,1032.60
2019-02-25T08:12:43.871Z,1032.60
2019-02-25T08:13:43.862Z,1032.59
2019-02-25T08:14:43.868Z,1032.57
2019-02-25T08:15:43.830Z,1032.57
2019-02-25T08:16:43.830Z,1032.59
2019-02-25T08:17:43.809Z,1032.57
2019-02-25T08:18:43.801Z,1032.67
2019-02-25T08:19:43.808Z,1032.55
2019-02-25T08:20:43.826Z,1032.52
2019-02-25T08:21:43.770Z,1032.51
2019-02-25T08:22:43.759Z,1032.57
2019-02-25T08:23:43.740Z,1032.51
2019-02-25T08:24:43.760Z,1032.43
2019-02-25T08:25:43.709Z,1032.44
2019-02-25T08:26:43.709Z,1032.52
2019-02-25T08:27:43.714Z,1032.50
2019-02-25T08:28:43.681Z,1032.55
2019-02-25T08:29:43.702Z,1032.50
2019-02-25T08:30:43.665Z,1032.40
2019-02-25T08:31:43.674Z,1032.39
2019-02-25T08:32:43.647Z,1032.44
2019-02-25T08:33:43.635Z,1032.55
2019-02-25T08:34:43.619Z,1032.53
2019-02-25T08:35:43.625Z,1032.49
2019-02-25T08:36:43.599Z,1032.37
2019-02-25T08:37:43.576Z,1032.35
2019-02-25T08:38:43.581Z,1032.43
2019-02-25T08:39:43.578Z,1032.43
2019-02-25T08:40:43.610Z,1032.45
2019-02-25T08:41:43.551Z,1032.41
2019-02-25T08:42:43.532Z,1032.60
2019-02-25T08:43:43.518Z,1032.55
2019-02-25T08:44:43.504Z,1032.52
2019-02-25T08:45:43.536Z,1032.57
2019-02-25T08:46:43.493Z,1032.49
2019-02-25T08:47:43.481Z,1032.52
2019-02-25T08:48:43.459Z,1032.50
2019-02-25T08:49:43.445Z,1032.59
2019-02-25T08:50:43.465Z,1032.53
2019-02-25T08:51:43.434Z,1032.42
2019-02-25T08:52:43.425Z,1032.41
2019-02-25T08:53:43.428Z,1032.48
2019-02-25T08:54:43.410Z,1032.46
2019-02-25T08:55:43.415Z,1032.46
2019-02-25T08:56:43.390Z,1032.48
2019-02-25T08:57:43.361Z,1032.47
2019-02-25T08:58:43.358Z,1032.57
2019-02-25T08:59:43.339Z,1032.57
2019-02-25T09:00:43.362Z,1032.59
2019-02-25T09:01:43.319Z,1032.59
2019-02-25T09:02:43.323Z,1032.53
2019-02-25T09:03:43.293Z,1032.53
2019-02-25T09:04:43.334Z,1032.60
2019-02-25T09:05:43.297Z,1032.62
2019-02-25T09:06:43.279Z,1032.66
2019-02-25T09:07:43.247Z,1032.72
2019-02-25T09:08:43.229Z,1032.76
2019-02-25T09:09:43.237Z,1032.72
2019-02-25T09:10:43.234Z,1032.68
2019-02-25T09:11:43.209Z,1032.75
2019-02-25T09:12:43.196Z,1032.65
2019-02-25T09:13:43.194Z,1032.61
2019-02-25T09:14:43.182Z,1032.75
2019-02-25T09:15:43.207Z,1032.70
2019-02-25T09:16:43.212Z,1032.60
2019-02-25T09:17:43.150Z,1032.57
2019-02-25T09:18:43.133Z,1032.51
2019-02-25T09:19:43.118Z,1032.61
2019-02-25T09:20:43.143Z,1032.50
2019-02-25T09:21:43.094Z,1032.55
2019-02-25T09:22:43.111Z,1032.52
2019-02-25T09:23:43.087Z,1032.55
2019-02-25T09:24:43.053Z,1032.47
2019-02-25T09:25:43.056Z,1032.55
2019-02-25T09:26:43.058Z,1032.54
2019-02-25T09:27:43.045Z,1032.60
2019-02-25T09:28:43.020Z,1032.57
2019-02-25T09:29:44.803Z,1032.51
2019-02-25T09:30:42.994Z,1032.52
2019-02-25T09:31:43.000Z,1032.48
2019-02-25T09:32:42.978Z,1032.54
2019-02-25T09:33:42.976Z,1032.43
2019-02-25T09:34:43.068Z,1032.50
2019-02-25T09:35:42.944Z,1032.45
2019-02-25T09:36:42.964Z,1032.43
2019-02-25T09:37:42.922Z,1032.45
2019-02-25T09:38:42.920Z,1032.33
2019-02-25T09:39:42.912Z,1032.39
2019-02-25T09:40:42.892Z,1032.36
2019-02-25T09:41:42.891Z,1032.34
2019-02-25T09:42:42.866Z,1032.53
2019-02-25T09:43:42.859Z,1032.40
2019-02-25T09:44:42.860Z,1032.57
2019-02-25T09:45:42.834Z,1032.54
2019-02-25T09:46:42.837Z,1032.45
2019-02-25T09:47:42.810Z,1032.46
2019-02-25T09:48:42.801Z,1032.42
2019-02-25T09:49:42.790Z,1032.42
2019-02-25T09:50:42.778Z,1032.47
2019-02-25T09:51:42.776Z,1032.43
2019-02-25T09:52:42.759Z,1032.49
2019-02-25T09:53:42.742Z,1032.56
2019-02-25T09:54:42.723Z,1032.47
2019-02-25T09:55:42.726Z,1032.47
2019-02-25T09:56:42.726Z,1032.43
2019-02-25T09:57:42.697Z,1032.43
2019-02-25T09:58:42.697Z,1032.45
2019-02-25T09:59:42.693Z,1032.36
2019-02-25T10:00:42.671Z,1032.43
2019-02-25T10:01:42.673Z,1032.46
2019-02-25T10:02:42.651Z,1032.40
2019-02-25T10:03:42.638Z,1032.33
2019-02-25T10:04:42.625Z,1032.37
2019-02-25T10:05:42.606Z,1032.35
2019-02-25T10:06:42.605Z,1032.34
2019-02-25T10:07:42.585Z,1032.36
2019-02-25T10:08:42.573Z,1032.29
2019-02-25T10:09:42.571Z,1032.32
2019-02-25T10:10:42.553Z,1032.13
2019-02-25T10:11:42.582Z,1032.18
2019-02-25T10:12:42.533Z,1032.12
2019-02-25T10:13:42.520Z,1032.20
2019-02-25T10:14:42.510Z,1032.08
2019-02-25T10:15:42.500Z,1032.02
2019-02-25T10:16:42.513Z,1032.03
2019-02-25T10:17:42.477Z,1032.02
2019-02-25T10:18:42.465Z,1032.05
2019-02-25T10:19:42.458Z,1032.06
2019-02-25T10:20:42.473Z,1032.22
2019-02-25T10:21:42.445Z,1032.12
2019-02-25T10:22:42.418Z,1032.12
2019-02-25T10:23:42.411Z,1032.10
2019-02-25T10:24:42.401Z,1032.14
2019-02-25T10:25:42.396Z,1032.14
2019-02-25T10:26:42.465Z,1032.05
2019-02-25T10:27:42.373Z,1032.03
2019-02-25T10:28:42.351Z,1031.99
2019-02-25T10:29:42.350Z,1032.04
2019-02-25T10:30:42.338Z,1032.09
2019-02-25T10:31:43.816Z,1031.95
2019-02-25T10:32:42.307Z,1032.06
2019-02-25T10:33:42.318Z,1032.16
2019-02-25T10:34:42.283Z,1032.00
2019-02-25T10:35:42.276Z,1032.02
2019-02-25T10:36:43.871Z,1032.00
2019-02-25T10:37:43.783Z,1031.92
2019-02-25T10:38:42.243Z,1032.03
2019-02-25T10:39:43.267Z,1032.03
2019-02-25T10:40:43.343Z,1032.11
2019-02-25T10:41:42.232Z,1032.13
2019-02-25T10:42:42.209Z,1031.93
2019-02-25T10:43:42.180Z,1031.94
2019-02-25T10:44:42.173Z,1031.89
2019-02-25T10:45:43.390Z,1031.90
2019-02-25T10:46:42.870Z,1031.86
2019-02-25T10:47:44.124Z,1031.93
2019-02-25T10:48:42.143Z,1032.00
2019-02-25T10:49:42.116Z,1032.01
2019-02-25T10:50:42.109Z,1032.01
2019-02-25T10:51:43.929Z,1031.97
2019-02-25T10:52:42.942Z,1031.92
2019-02-25T10:53:43.100Z,1031.82
2019-02-25T10:54:42.067Z,1031.92
2019-02-25T10:55:45.002Z,1031.86
2019-02-25T10:56:42.056Z,1031.74
2019-02-25T10:57:42.033Z,1031.71
2019-02-25T10:58:42.022Z,1031.66
2019-02-25T10:59:42.005Z,1031.77
2019-02-25T11:00:43.678Z,1031.84
2019-02-25T11:01:43.357Z,1031.90
2019-02-25T11:02:44.440Z,1031.87
2019-02-25T11:03:43.098Z,1031.77
2019-02-25T11:04:41.963Z,1031.73
2019-02-25T11:05:41.957Z,1031.90
2019-02-25T11:06:41.944Z,1031.81
2019-02-25T11:07:42.098Z,1031.77
2019-02-25T11:08:43.473Z,1031.71
2019-02-25T11:09:42.459Z,1031.66
2019-02-25T11:10:41.908Z,1031.62
2019-02-25T11:11:41.896Z,1031.61
2019-02-25T11:12:41.862Z,1031.64
2019-02-25T11:13:41.855Z,1031.64
2019-02-25T11:14:43.397Z,1031.59
2019-02-25T11:15:43.609Z,1031.58
2019-02-25T11:16:42.324Z,1031.60
2019-02-25T11:17:41.802Z,1031.58
2019-02-25T11:18:41.823Z,1031.65
2019-02-25T11:19:41.791Z,1031.61
2019-02-25T11:20:41.768Z,1031.49
2019-02-25T11:21:42.159Z,1031.51
2019-02-25T11:22:42.403Z,1031.55
2019-02-25T11:23:43.453Z,1031.38
2019-02-25T11:24:41.727Z,1031.32
2019-02-25T11:25:41.735Z,1031.47
2019-02-25T11:26:41.718Z,1031.42
2019-02-25T11:27:41.748Z,1031.39
2019-02-25T11:28:43.686Z,1031.49
2019-02-25T11:29:42.534Z,1031.44
2019-02-25T11:30:43.146Z,1031.41
2019-02-25T11:31:41.645Z,1031.46
2019-02-25T11:32:41.656Z,1031.42
2019-02-25T11:33:41.631Z,1031.44
2019-02-25T11:34:41.634Z,1031.45
2019-02-25T11:35:43.274Z,1031.41
2019-02-25T11:36:41.607Z,1031.50
2019-02-25T11:37:41.601Z,1031.42
2019-02-25T11:38:41.596Z,1031.48
2019-02-25T11:39:41.559Z,1031.50
2019-02-25T11:40:41.607Z,1031.53
2019-02-25T11:41:41.541Z,1031.67
2019-02-25T11:42:41.550Z,1031.69
2019-02-25T11:43:43.346Z,1031.67
2019-02-25T11:44:41.509Z,1031.55
2019-02-25T11:45:41.500Z,1031.55
2019-02-25T11:46:41.487Z,1031.53
2019-02-25T11:47:41.490Z,1031.49
2019-02-25T11:48:41.474Z,1031.49
2019-02-25T11:49:41.464Z,1031.34
2019-02-25T11:50:41.449Z,1031.42
2019-02-25T11:51:41.449Z,1031.31
2019-02-25T11:52:41.441Z,1031.35
2019-02-25T11:53:41.414Z,1031.28
2019-02-25T11:54:41.407Z,1031.23
2019-02-25T11:55:41.395Z,1031.35
2019-02-25T11:56:41.381Z,1031.31
2019-02-25T11:57:41.379Z,1031.34
2019-02-25T11:58:41.365Z,1031.36
2019-02-25T11:59:41.342Z,1031.19
2019-02-25T12:00:41.355Z,1031.10
2019-02-25T12:01:41.316Z,1031.06
2019-02-25T12:02:41.323Z,1031.01
2019-02-25T12:03:41.288Z,1031.15
2019-02-25T12:04:41.298Z,1031.10
2019-02-25T12:05:41.292Z,1031.10